Time;durP1;ratioP1;P1;durP2;ratioP2;P2;SDS_P1;SDS_P2;PMS_P1;PMS_P2;Temp;Humidity;BMP_temperature;BMP_pressure;BME280_temperature;BME280_humidity;BME280_pressure;Samples;Min_cycle;Max_cycle;Signal;HPM_P1;HPM_P2
2022/05/03 00:02:52;;;;;;;12.75;8.15;;;5.60;99.90;;;;;;5029913;28;20049;-68
2022/05/03 00:05:38;;;;;;;10.60;7.22;;;5.60;99.90;;;;;;5023479;28;20053;-68
2022/05/03 00:08:07;;;;;;;13.45;8.10;;;5.70;99.90;;;;;;5013007;28;20124;-68
2022/05/03 00:11:00;;;;;;;11.18;8.18;;;5.80;99.90;;;;;;5023069;28;20041;-71
2022/05/03 00:13:37;;;;;;;15.43;9.10;;;5.80;99.90;;;;;;5024129;28;20084;-67
2022/05/03 00:16:04;;;;;;;10.52;7.30;;;5.60;99.90;;;;;;5031579;28;20504;-70
2022/05/03 00:18:31;;;;;;;12.82;8.75;;;5.60;99.90;;;;;;5041243;28;20504;-67
2022/05/03 00:20:57;;;;;;;13.52;7.97;;;5.50;99.90;;;;;;5024651;28;20501;-70
2022/05/03 00:23:24;;;;;;;11.98;7.65;;;5.40;99.90;;;;;;5031238;28;20049;-67
2022/05/03 00:25:51;;;;;;;12.65;8.63;;;5.40;99.90;;;;;;5029736;28;20041;-67
2022/05/03 00:28:21;;;;;;;12.00;8.20;;;5.30;99.90;;;;;;5025837;28;20084;-69
2022/05/03 00:30:49;;;;;;;12.27;8.98;;;5.30;99.90;;;;;;5026196;28;20168;-67
2022/05/03 00:33:16;;;;;;;12.85;9.05;;;5.20;99.90;;;;;;5042205;28;20255;-68
2022/05/03 00:35:43;;;;;;;15.05;9.40;;;5.10;99.90;;;;;;5025445;28;20149;-68
2022/05/03 00:38:09;;;;;;;14.20;9.50;;;5.20;99.90;;;;;;5028269;28;20033;-68
2022/05/03 00:40:44;;;;;;;14.45;10.05;;;5.20;99.90;;;;;;5031046;28;20045;-67
2022/05/03 00:43:24;;;;;;;15.43;9.93;;;5.20;99.90;;;;;;5030025;28;20140;-68
2022/05/03 00:46:01;;;;;;;13.13;9.10;;;5.20;99.90;;;;;;5025420;28;20044;-68
2022/05/03 00:48:27;;;;;;;14.13;9.50;;;5.30;99.90;;;;;;5011587;28;20221;-68
2022/05/03 00:50:52;;;;;;;13.48;8.77;;;5.30;99.90;;;;;;5028624;28;20041;-68
2022/05/03 00:53:28;;;;;;;14.75;9.50;;;5.20;99.90;;;;;;5032369;28;20115;-68
2022/05/03 00:56:09;;;;;;;11.50;8.43;;;5.30;99.90;;;;;;5031806;28;20092;-68
2022/05/03 00:58:44;;;;;;;7.73;5.10;;;5.20;99.90;;;;;;5020617;28;20049;-68
2022/05/03 01:01:35;;;;;;;11.70;8.57;;;5.10;99.90;;;;;;5030470;28;20405;-69
2022/05/03 01:04:19;;;;;;;11.83;8.70;;;5.00;99.90;;;;;;5026202;28;20045;-69
2022/05/03 01:07:19;;;;;;;14.35;9.60;;;4.90;99.90;;;;;;5026485;28;20100;-69
2022/05/03 01:10:03;;;;;;;15.43;9.95;;;4.80;99.90;;;;;;5018360;28;20045;-68
2022/05/03 01:12:49;;;;;;;14.73;10.18;;;4.80;99.90;;;;;;5029858;28;20107;-69
2022/05/03 01:15:23;;;;;;;17.30;10.52;;;4.80;99.90;;;;;;5025362;28;20049;-68
2022/05/03 01:18:14;;;;;;;13.23;9.57;;;4.80;99.90;;;;;;4997548;28;20500;-68
2022/05/03 01:20:50;;;;;;;15.35;10.07;;;4.70;99.90;;;;;;5044557;28;20056;-70
2022/05/03 01:23:46;;;;;;;16.70;10.38;;;4.70;99.90;;;;;;5027107;28;20049;-68
2022/05/03 01:26:55;;;;;;;17.73;11.68;;;4.60;99.90;;;;;;5030320;28;20053;-69
2022/05/03 01:29:21;;;;;;;18.60;12.43;;;4.80;99.90;;;;;;5023941;28;20459;-68
2022/05/03 01:31:47;;;;;;;14.15;8.95;;;4.80;99.90;;;;;;5045368;28;20062;-68
2022/05/03 01:34:19;;;;;;;17.50;11.20;;;4.80;99.90;;;;;;5026039;28;20033;-69
2022/05/03 01:37:04;;;;;;;17.33;11.57;;;4.80;99.90;;;;;;5022521;28;20042;-68
2022/05/03 01:39:43;;;;;;;16.35;11.27;;;4.90;99.90;;;;;;5029657;28;20508;-68
2022/05/03 01:42:12;;;;;;;16.30;10.63;;;4.90;99.90;;;;;;5028364;28;20118;-69
2022/05/03 01:45:03;;;;;;;10.13;7.70;;;4.90;99.90;;;;;;5034416;28;20045;-70
2022/05/03 01:48:07;;;;;;;18.70;11.75;;;4.80;99.90;;;;;;5029419;28;20128;-68
2022/05/03 01:50:32;;;;;;;15.70;10.60;;;4.80;99.90;;;;;;5019620;28;20050;-68
2022/05/03 01:53:01;;;;;;;15.00;10.80;;;4.70;99.90;;;;;;5029953;28;20140;-69
2022/05/03 01:56:04;;;;;;;17.15;11.93;;;4.60;99.90;;;;;;5029352;28;20056;-68
2022/05/03 01:58:42;;;;;;;16.73;11.75;;;4.60;99.90;;;;;;5024973;28;20041;-68
2022/05/03 02:01:19;;;;;;;21.38;12.10;;;4.60;99.90;;;;;;5029814;28;20056;-68
2022/05/03 02:03:49;;;;;;;23.42;13.07;;;4.60;99.90;;;;;;5028542;28;20130;-67
2022/05/03 02:06:16;;;;;;;16.88;11.32;;;4.70;99.90;;;;;;5031069;28;20188;-68
2022/05/03 02:09:00;;;;;;;20.88;12.55;;;4.70;99.90;;;;;;5013456;28;20051;-67
2022/05/03 02:11:59;;;;;;;18.85;12.10;;;4.70;99.90;;;;;;5028967;28;20084;-67
2022/05/03 02:14:48;;;;;;;14.23;9.98;;;4.70;99.90;;;;;;5021847;28;20052;-69
2022/05/03 02:17:29;;;;;;;14.82;10.18;;;4.60;99.90;;;;;;5036903;28;20141;-67
2022/05/03 02:20:20;;;;;;;15.20;10.80;;;4.60;99.90;;;;;;5025343;28;20097;-68
2022/05/03 02:22:55;;;;;;;19.15;11.95;;;4.50;99.90;;;;;;5022550;28;20305;-68
2022/05/03 02:25:41;;;;;;;22.90;14.55;;;4.50;99.90;;;;;;5015674;28;20394;-68
2022/05/03 02:28:33;;;;;;;21.08;14.50;;;4.50;99.90;;;;;;5008987;28;20056;-70
2022/05/03 02:31:02;;;;;;;18.55;12.32;;;4.60;99.90;;;;;;5023004;28;20072;-69
2022/05/03 02:33:54;;;;;;;18.80;12.27;;;4.70;99.90;;;;;;5019406;28;20132;-70
2022/05/03 02:36:24;;;;;;;20.88;13.25;;;4.50;99.90;;;;;;5016412;28;20059;-70
2022/05/03 02:38:58;;;;;;;19.38;12.70;;;4.50;99.90;;;;;;5019254;28;20398;-68
2022/05/03 02:41:26;;;;;;;19.90;12.80;;;4.50;99.90;;;;;;5004514;28;20483;-68
2022/05/03 02:43:55;;;;;;;23.13;14.20;;;4.40;99.90;;;;;;5012134;28;20498;-67
2022/05/03 02:46:58;;;;;;;24.27;14.32;;;4.50;99.90;;;;;;5022150;28;20054;-68
2022/05/03 02:49:30;;;;;;;22.75;13.77;;;4.50;99.90;;;;;;5005268;28;20071;-68
2022/05/03 02:52:08;;;;;;;;;;;4.90;99.90;;;;;;5006401;28;20046;-68
2022/05/03 02:54:52;;;;;;;20.00;12.60;;;4.50;99.90;;;;;;5016992;28;19927;-69
2022/05/03 02:57:21;;;;;;;19.80;12.80;;;4.90;99.90;;;;;;5022765;28;20046;-68
2022/05/03 03:03:17;;;;;;;18.20;12.45;;;4.50;99.90;;;;;;5029801;28;20124;-68
2022/05/03 03:05:47;;;;;;;24.77;13.85;;;4.60;99.90;;;;;;5028920;28;20068;-68
2022/05/03 03:08:19;;;;;;;18.10;12.48;;;4.60;99.90;;;;;;5030051;28;20057;-68
2022/05/03 03:11:05;;;;;;;22.38;13.68;;;4.60;99.90;;;;;;5030107;28;20115;-68
2022/05/03 03:13:52;;;;;;;23.25;14.07;;;4.70;99.90;;;;;;5022427;28;20085;-70
2022/05/03 03:16:32;;;;;;;27.13;15.90;;;4.70;99.90;;;;;;5018176;28;20038;-68
2022/05/03 03:19:07;;;;;;;26.88;16.23;;;4.90;99.90;;;;;;5033682;28;20062;-68
2022/05/03 03:21:36;;;;;;;24.92;15.30;;;5.10;99.90;;;;;;5013507;28;20085;-68
2022/05/03 03:24:04;;;;;;;22.38;14.13;;;5.00;99.90;;;;;;5029237;28;20068;-68
2022/05/03 03:26:30;;;;;;;26.33;14.50;;;5.10;99.90;;;;;;5046158;28;20477;-68
2022/05/03 03:29:00;;;;;;;20.98;15.00;;;5.10;99.90;;;;;;5030506;28;20045;-68
2022/05/03 03:31:26;;;;;;;20.58;13.73;;;5.60;99.90;;;;;;5028974;28;20060;-68
2022/05/03 03:33:54;;;;;;;23.67;14.57;;;5.30;99.90;;;;;;5000263;28;20124;-69
2022/05/03 03:36:23;;;;;;;23.95;13.77;;;5.30;99.90;;;;;;5028832;28;20049;-68
2022/05/03 03:38:49;;;;;;;26.08;15.25;;;5.30;99.90;;;;;;5033232;28;20425;-69
2022/05/03 03:41:15;;;;;;;26.08;15.45;;;5.50;99.90;;;;;;5047733;28;20045;-68
2022/05/03 03:43:41;;;;;;;25.63;15.13;;;5.50;99.90;;;;;;5040566;28;20041;-68
2022/05/03 03:46:10;;;;;;;21.02;13.98;;;5.80;99.90;;;;;;5043766;28;20048;-69
2022/05/03 03:48:37;;;;;;;19.33;13.30;;;5.60;99.90;;;;;;4992988;28;20042;-70
2022/05/03 03:51:05;;;;;;;23.55;15.05;;;5.50;99.90;;;;;;4998271;28;20107;-69
2022/05/03 03:53:32;;;;;;;21.73;14.27;;;5.50;99.90;;;;;;5032413;28;20057;-69
2022/05/03 03:55:59;;;;;;;22.25;14.65;;;5.50;99.90;;;;;;5047349;28;20038;-70
2022/05/03 03:58:26;;;;;;;24.17;15.88;;;5.50;99.90;;;;;;5028094;28;20494;-68
2022/05/03 04:00:52;;;;;;;25.75;15.73;;;5.40;99.90;;;;;;5017988;28;20045;-68
2022/05/03 04:03:18;;;;;;;23.77;16.13;;;5.50;99.90;;;;;;4984025;28;20046;-69
2022/05/03 04:05:44;;;;;;;20.92;14.80;;;5.60;99.90;;;;;;5022501;28;20054;-69
2022/05/03 04:08:10;;;;;;;23.30;15.60;;;5.60;99.90;;;;;;5012181;28;20045;-71
2022/05/03 04:10:36;;;;;;;26.77;15.90;;;5.70;99.90;;;;;;5018914;28;20037;-69
2022/05/03 04:13:02;;;;;;;21.77;15.13;;;5.80;99.90;;;;;;5022606;28;20124;-70
2022/05/03 04:15:30;;;;;;;20.60;13.63;;;5.90;99.90;;;;;;5020587;28;20041;-71
2022/05/03 04:17:56;;;;;;;20.80;12.82;;;5.90;99.90;;;;;;5015868;28;20103;-69
2022/05/03 04:20:22;;;;;;;19.98;13.77;;;6.00;99.90;;;;;;5022715;28;20057;-69
2022/05/03 04:22:48;;;;;;;20.63;14.23;;;6.00;99.90;;;;;;5017921;28;20061;-69
2022/05/03 04:25:14;;;;;;;23.52;14.55;;;6.10;99.90;;;;;;5004118;28;20045;-68
2022/05/03 04:27:40;;;;;;;25.20;15.10;;;6.10;99.90;;;;;;5019649;28;20050;-71
2022/05/03 04:30:07;;;;;;;26.95;16.60;;;6.20;99.90;;;;;;5023650;28;20045;-72
2022/05/03 04:32:34;;;;;;;25.65;15.70;;;6.40;99.90;;;;;;5041462;28;20199;-69
2022/05/03 04:35:00;;;;;;;25.60;16.35;;;6.50;99.90;;;;;;5009069;28;20049;-69
2022/05/03 04:37:27;;;;;;;24.42;15.52;;;6.50;99.90;;;;;;5025583;28;20053;-69
2022/05/03 04:39:53;;;;;;;26.50;16.90;;;6.70;99.90;;;;;;5023075;28;20045;-68
2022/05/03 04:42:19;;;;;;;25.77;16.90;;;6.70;99.90;;;;;;5040998;28;20387;-68
2022/05/03 04:44:45;;;;;;;23.85;15.00;;;6.80;99.90;;;;;;5040720;28;20057;-68
2022/05/03 04:47:11;;;;;;;24.35;16.00;;;6.90;99.90;;;;;;5008866;28;20131;-71
2022/05/03 04:49:37;;;;;;;29.52;17.83;;;7.00;99.90;;;;;;5017275;28;20141;-69
2022/05/03 04:52:04;;;;;;;27.02;17.90;;;7.10;99.90;;;;;;5039649;28;20041;-69
2022/05/03 04:54:30;;;;;;;27.67;17.65;;;7.20;99.90;;;;;;5024425;28;20049;-68
2022/05/03 04:57:05;;;;;;;28.67;18.83;;;7.20;99.90;;;;;;4990805;28;20038;-68
2022/05/03 04:59:32;;;;;;;29.75;17.80;;;7.30;99.90;;;;;;5023726;28;20046;-70
2022/05/03 05:01:58;;;;;;;27.77;17.08;;;7.40;99.90;;;;;;5020197;28;20049;-71
2022/05/03 05:04:24;;;;;;;30.27;18.95;;;7.50;99.90;;;;;;5019396;28;20085;-69
2022/05/03 05:06:50;;;;;;;27.90;18.27;;;7.50;99.90;;;;;;5017999;28;20077;-69
2022/05/03 05:09:16;;;;;;;28.58;18.20;;;7.60;99.90;;;;;;5019023;28;20057;-69
2022/05/03 05:11:43;;;;;;;28.80;18.77;;;7.60;99.90;;;;;;5006355;28;20045;-70
2022/05/03 05:14:09;;;;;;;32.38;19.58;;;7.70;99.90;;;;;;5024695;28;20072;-68
2022/05/03 05:16:35;;;;;;;29.52;18.58;;;7.70;99.90;;;;;;5042783;28;20045;-70
2022/05/03 05:19:01;;;;;;;31.95;19.23;;;7.90;99.90;;;;;;5008088;28;20053;-69
2022/05/03 05:21:27;;;;;;;31.33;18.77;;;7.90;99.90;;;;;;5020356;28;20128;-68
2022/05/03 05:23:54;;;;;;;31.13;20.00;;;8.00;99.90;;;;;;5016108;28;20103;-68
2022/05/03 05:26:20;;;;;;;33.28;19.83;;;8.00;99.90;;;;;;5020082;28;20045;-69
2022/05/03 05:28:46;;;;;;;31.73;20.02;;;8.20;99.90;;;;;;5018973;28;20493;-68
2022/05/03 05:31:12;;;;;;;31.52;21.10;;;8.20;99.90;;;;;;5022899;28;20048;-69
2022/05/03 05:33:38;;;;;;;33.17;20.40;;;8.30;99.90;;;;;;5016669;28;20505;-68
2022/05/03 05:36:06;;;;;;;34.63;19.95;;;8.40;99.90;;;;;;5040103;28;20102;-69
2022/05/03 05:38:32;;;;;;;33.22;20.45;;;8.40;99.90;;;;;;5008309;28;20129;-71
2022/05/03 05:40:58;;;;;;;32.35;20.83;;;8.50;99.90;;;;;;5016745;28;20490;-72
2022/05/03 05:43:24;;;;;;;32.15;20.00;;;8.50;99.90;;;;;;5024237;28;20390;-68
2022/05/03 05:45:52;;;;;;;34.22;19.92;;;8.60;99.90;;;;;;5019160;28;20049;-69
2022/05/03 05:48:20;;;;;;;31.63;20.17;;;8.70;99.90;;;;;;5006338;28;20055;-68
2022/05/03 05:50:46;;;;;;;36.60;21.15;;;8.70;99.90;;;;;;5015592;28;20121;-68
2022/05/03 05:55:56;;;;;;;38.97;21.95;;;8.80;99.90;;;;;;5009445;28;20177;-70
2022/05/03 05:58:22;;;;;;;40.53;22.50;;;8.90;99.90;;;;;;4993506;28;20383;-68
2022/05/03 06:00:49;;;;;;;37.95;21.48;;;8.90;99.90;;;;;;5017670;28;20050;-68
2022/05/03 06:03:16;;;;;;;38.95;22.58;;;9.00;99.90;;;;;;5022071;28;20046;-70
2022/05/03 06:05:43;;;;;;;36.70;21.45;;;9.00;99.90;;;;;;5035426;28;20053;-69
2022/05/03 06:08:16;;;;;;;40.10;23.15;;;9.00;99.90;;;;;;5019357;28;20056;-69
2022/05/03 06:10:42;;;;;;;38.53;23.15;;;9.10;99.90;;;;;;5041206;28;20037;-70
2022/05/03 06:13:10;;;;;;;47.67;25.30;;;9.10;99.90;;;;;;5008838;28;20370;-68
2022/05/03 06:15:37;;;;;;;39.63;22.85;;;9.10;99.90;;;;;;5038118;28;20053;-69
2022/05/03 06:18:04;;;;;;;46.05;24.48;;;9.20;99.90;;;;;;5021094;28;20045;-70
2022/05/03 06:20:30;;;;;;;43.42;24.02;;;9.20;99.90;;;;;;5014956;28;20597;-68
2022/05/03 06:22:57;;;;;;;46.75;25.95;;;9.30;99.90;;;;;;4983574;28;20046;-68
2022/05/03 06:25:26;;;;;;;48.75;26.42;;;9.30;99.90;;;;;;5018453;28;20490;-69
2022/05/03 06:27:52;;;;;;;45.30;26.40;;;9.40;99.90;;;;;;5020185;28;20045;-70
2022/05/03 06:30:18;;;;;;;48.30;25.92;;;9.40;99.90;;;;;;5023285;28;20044;-69
2022/05/03 06:32:45;;;;;;;51.78;27.40;;;9.40;99.90;;;;;;4992470;28;20057;-70
2022/05/03 06:35:12;;;;;;;50.58;27.33;;;9.40;99.90;;;;;;5020148;28;20041;-71
2022/05/03 06:37:42;;;;;;;51.22;28.05;;;9.50;99.90;;;;;;5038980;28;20048;-71
2022/05/03 06:40:10;;;;;;;51.30;27.92;;;9.40;99.90;;;;;;5018451;28;20048;-69
2022/05/03 06:42:37;;;;;;;52.67;27.52;;;9.50;99.90;;;;;;5007012;28;20073;-71
2022/05/03 06:45:08;;;;;;;52.65;27.63;;;9.50;99.90;;;;;;4998394;28;20063;-69
2022/05/03 06:47:34;;;;;;;48.80;25.25;;;9.60;99.90;;;;;;5050344;28;20111;-69
2022/05/03 06:50:00;;;;;;;38.35;20.23;;;9.70;99.90;;;;;;5050272;28;20057;-69
2022/05/03 06:52:27;;;;;;;30.55;17.35;;;9.70;99.90;;;;;;5033780;28;20111;-71
2022/05/03 06:54:53;;;;;;;22.50;11.73;;;9.70;99.90;;;;;;5029796;28;20057;-69
2022/05/03 06:57:19;;;;;;;26.50;10.38;;;9.70;99.90;;;;;;5039469;28;20418;-69
2022/05/03 06:59:45;;;;;;;18.50;7.50;;;9.80;99.90;;;;;;5006174;28;20057;-68
2022/05/03 07:02:11;;;;;;;16.38;6.43;;;9.70;99.90;;;;;;5015337;28;20042;-73
2022/05/03 07:04:37;;;;;;;11.27;5.47;;;9.80;99.90;;;;;;5013755;28;20409;-69
2022/05/03 07:07:03;;;;;;;14.05;6.03;;;9.80;99.90;;;;;;5029070;28;20047;-70
2022/05/03 07:09:29;;;;;;;16.23;5.55;;;9.80;99.90;;;;;;5019107;28;20538;-70
2022/05/03 07:11:55;;;;;;;13.73;6.60;;;9.90;99.90;;;;;;5023323;28;20042;-69
2022/05/03 07:14:22;;;;;;;16.30;6.72;;;10.10;99.90;;;;;;5005800;28;20041;-69
2022/05/03 07:16:48;;;;;;;13.63;5.55;;;10.10;99.90;;;;;;5030310;28;20124;-68
2022/05/03 07:24:45;;;;;;;15.60;5.15;;;10.00;99.90;;;;;;5012917;28;20088;-70
2022/05/03 07:27:13;;;;;;;17.60;5.32;;;10.00;99.90;;;;;;5038238;28;20132;-71
2022/05/03 07:29:38;;;;;;;19.27;5.40;;;10.00;99.90;;;;;;5011621;28;20077;-69
2022/05/03 07:32:05;;;;;;;16.77;5.25;;;10.00;99.90;;;;;;5050094;28;20073;-68
2022/05/03 07:34:31;;;;;;;14.98;5.43;;;10.10;99.90;;;;;;5041794;28;20045;-69
2022/05/03 07:36:57;;;;;;;14.18;5.25;;;10.10;99.90;;;;;;5017315;28;20048;-68
2022/05/03 07:39:23;;;;;;;18.45;5.53;;;10.20;99.90;;;;;;5003440;28;20135;-68
2022/05/03 07:41:49;;;;;;;16.77;5.57;;;10.30;99.90;;;;;;5039158;28;20049;-69
2022/05/03 07:44:15;;;;;;;23.77;6.15;;;10.30;99.90;;;;;;5049271;28;20077;-68
2022/05/03 07:46:41;;;;;;;22.98;5.70;;;10.30;99.90;;;;;;5033676;28;20041;-71
2022/05/03 07:49:09;;;;;;;18.35;6.30;;;10.40;99.90;;;;;;5029049;28;20048;-68
2022/05/03 07:51:35;;;;;;;18.60;5.72;;;10.50;99.90;;;;;;5014585;28;20107;-69
2022/05/03 07:54:01;;;;;;;19.80;6.05;;;10.50;99.90;;;;;;5058507;28;20057;-69
2022/05/03 07:56:27;;;;;;;23.85;6.43;;;10.60;99.90;;;;;;5051995;28;20049;-68
2022/05/03 07:58:53;;;;;;;18.58;5.78;;;10.80;99.90;;;;;;5033444;28;20050;-68
2022/05/03 08:01:19;;;;;;;19.25;6.50;;;11.00;99.90;;;;;;5031546;28;20076;-69
2022/05/03 08:03:45;;;;;;;17.75;6.00;;;11.20;99.90;;;;;;5017484;28;20498;-70
2022/05/03 08:06:11;;;;;;;17.30;5.65;;;11.20;99.90;;;;;;5044060;28;20490;-71
2022/05/03 08:08:37;;;;;;;25.73;6.20;;;11.30;99.90;;;;;;5041158;28;20529;-69
2022/05/03 08:11:04;;;;;;;22.70;5.72;;;11.50;99.90;;;;;;5050549;28;20481;-68
2022/05/03 08:13:30;;;;;;;23.35;5.97;;;11.40;99.90;;;;;;5032280;28;20156;-69
2022/05/03 08:15:56;;;;;;;20.88;5.47;;;11.50;99.90;;;;;;5038509;28;20124;-69
2022/05/03 08:18:22;;;;;;;23.23;5.45;;;11.40;99.90;;;;;;5033087;28;20470;-68
2022/05/03 08:20:48;;;;;;;19.65;5.03;;;11.40;99.90;;;;;;5021563;28;20060;-68
2022/05/03 08:23:14;;;;;;;19.75;5.00;;;11.50;99.90;;;;;;5026752;28;20054;-68
2022/05/03 08:25:40;;;;;;;24.20;5.22;;;11.50;99.90;;;;;;5024248;28;20057;-69
2022/05/03 08:28:06;;;;;;;19.20;4.80;;;11.40;99.90;;;;;;5023814;28;20045;-69
2022/05/03 08:30:32;;;;;;;18.00;4.97;;;11.50;99.90;;;;;;5009810;28;20045;-69
2022/05/03 08:32:58;;;;;;;19.52;5.05;;;11.60;99.90;;;;;;5018252;28;20532;-69
2022/05/03 08:35:24;;;;;;;20.88;4.68;;;11.60;99.90;;;;;;5034397;28;20049;-68
2022/05/03 08:43:19;;;;;;;16.13;4.13;;;11.50;99.90;;;;;;5014790;28;20042;-72
2022/05/03 08:45:49;;;;;;;20.33;4.82;;;11.70;99.90;;;;;;4989189;28;20049;-74
2022/05/03 08:48:16;;;;;;;19.27;4.47;;;11.70;99.90;;;;;;5034242;28;20045;-74
2022/05/03 08:50:44;;;;;;;17.10;4.28;;;11.70;99.90;;;;;;5002631;28;20081;-71
2022/05/03 08:53:11;;;;;;;21.30;4.32;;;11.80;99.90;;;;;;5040649;28;20037;-73
2022/05/03 08:55:41;;;;;;;18.77;4.57;;;11.80;99.90;;;;;;5006747;28;20115;-73
2022/05/03 08:58:07;;;;;;;21.50;4.32;;;11.90;99.90;;;;;;5012733;28;20134;-74
2022/05/03 09:00:33;;;;;;;19.63;4.50;;;11.90;99.90;;;;;;5010199;28;20504;-73
2022/05/03 09:02:59;;;;;;;14.63;3.72;;;12.00;99.90;;;;;;5025920;28;20041;-74
2022/05/03 09:05:27;;;;;;;17.08;3.65;;;12.20;99.90;;;;;;5037758;28;20049;-70
2022/05/03 09:08:02;;;;;;;12.75;3.50;;;12.20;99.90;;;;;;5026653;28;20041;-74
2022/05/03 09:10:33;;;;;;;16.77;3.55;;;12.30;99.90;;;;;;5041919;28;20100;-73
2022/05/03 09:13:18;;;;;;;;;;;12.30;99.90;;;;;;5010262;28;20057;-75
2022/05/03 09:15:55;;;;;;;16.58;3.60;;;12.50;99.90;;;;;;5024174;28;19936;-71
2022/05/03 09:18:31;;;;;;;9.55;3.28;;;12.60;99.90;;;;;;5018285;28;20508;-73
2022/05/03 09:23:47;;;;;;;9.43;3.20;;;12.90;99.90;;;;;;5030791;28;20052;-75
2022/05/03 09:26:20;;;;;;;7.15;3.15;;;12.80;99.90;;;;;;5030597;28;20441;-70
2022/05/03 09:28:48;;;;;;;12.05;2.60;;;12.80;99.90;;;;;;5028996;28;20050;-69
2022/05/03 09:31:30;;;;;;;11.13;3.63;;;12.70;99.90;;;;;;5039638;28;20044;-69
2022/05/03 09:33:58;;;;;;;10.60;3.17;;;12.80;99.90;;;;;;5029397;28;20077;-69
2022/05/03 09:36:24;;;;;;;11.77;2.80;;;12.80;99.90;;;;;;5026037;28;20045;-68
2022/05/03 09:38:53;;;;;;;13.45;3.08;;;12.90;99.90;;;;;;5023127;28;20069;-69
2022/05/03 09:41:19;;;;;;;10.20;3.03;;;13.00;99.90;;;;;;5026336;28;20081;-69
2022/05/03 09:44:05;;;;;;;12.77;2.72;;;13.10;99.90;;;;;;5026898;28;20146;-74
2022/05/03 09:46:52;;;;;;;10.43;2.50;;;13.30;99.90;;;;;;5027933;28;20045;-75
2022/05/03 09:49:20;;;;;;;13.70;2.95;;;13.30;99.90;;;;;;5008852;28;20061;-72
2022/05/03 09:51:50;;;;;;;9.07;2.70;;;13.30;99.90;;;;;;5027144;28;20064;-72
2022/05/03 09:54:16;;;;;;;7.97;2.70;;;13.60;99.90;;;;;;5023798;28;20486;-73
2022/05/03 09:56:48;;;;;;;9.85;2.70;;;13.70;99.90;;;;;;5030961;28;20149;-71
2022/05/03 09:59:15;;;;;;;10.25;2.65;;;13.70;99.90;;;;;;5025773;28;20044;-69
2022/05/03 10:01:42;;;;;;;14.00;2.58;;;13.60;99.90;;;;;;5015520;28;20061;-73
2022/05/03 10:04:08;;;;;;;8.20;2.30;;;13.80;99.90;;;;;;5015640;28;20060;-70
2022/05/03 10:06:34;;;;;;;8.63;2.45;;;14.00;99.90;;;;;;5038255;28;20045;-69
2022/05/03 10:09:01;;;;;;;12.65;2.53;;;14.20;99.90;;;;;;5018664;28;20180;-69
2022/05/03 10:11:27;;;;;;;6.35;2.20;;;14.30;99.90;;;;;;5018027;28;20049;-69
2022/05/03 10:13:54;;;;;;;8.88;2.50;;;14.50;99.90;;;;;;5025129;28;20041;-75
2022/05/03 10:22:02;;;;;;;6.80;2.40;;;14.70;99.90;;;;;;5016600;28;20100;-72
2022/05/03 10:24:29;;;;;;;12.38;2.85;;;14.80;99.90;;;;;;5007764;28;20056;-72
2022/05/03 10:27:07;;;;;;;6.63;2.40;;;15.00;99.90;;;;;;5034805;28;20128;-77
2022/05/03 10:29:35;;;;;;;8.48;2.30;;;15.10;99.90;;;;;;5030583;28;20049;-72
2022/05/03 10:32:04;;;;;;;9.50;2.60;;;15.20;99.90;;;;;;5030449;28;20516;-73
2022/05/03 10:34:48;;;;;;;7.68;2.38;;;15.40;99.90;;;;;;5029390;28;20107;-71
2022/05/03 10:37:16;;;;;;;9.65;2.50;;;15.70;99.90;;;;;;5022338;28;20041;-71
2022/05/03 10:39:57;;;;;;;8.20;2.78;;;15.70;99.90;;;;;;5045438;28;20046;-71
2022/05/03 10:42:32;;;;;;;8.10;2.40;;;15.80;99.90;;;;;;5019437;28;20072;-71
2022/05/03 10:45:01;;;;;;;7.60;2.38;;;16.10;99.90;;;;;;5002489;28;20052;-72
2022/05/03 10:47:49;;;;;;;5.70;2.42;;;16.30;99.90;;;;;;5028368;28;20052;-72
2022/05/03 10:50:15;;;;;;;7.30;2.42;;;16.50;90.70;;;;;;5013255;28;20073;-72
2022/05/03 10:53:05;;;;;;;8.40;2.53;;;16.40;99.90;;;;;;5008292;28;20041;-72
2022/05/03 10:55:37;;;;;;;6.75;2.35;;;16.40;89.00;;;;;;5015634;28;20057;-72
2022/05/03 10:58:30;;;;;;;8.38;2.45;;;16.50;94.90;;;;;;5038477;28;20048;-71
2022/05/03 11:01:09;;;;;;;9.18;2.60;;;16.80;77.00;;;;;;5016718;28;20046;-72
2022/05/03 11:03:37;;;;;;;8.52;2.50;;;16.90;85.30;;;;;;5040022;28;20052;-71
2022/05/03 11:06:18;;;;;;;9.63;2.28;;;17.20;96.10;;;;;;5008660;28;20351;-72
2022/05/03 11:11:39;;;;;;;9.27;2.80;;;17.30;69.70;;;;;;5017448;28;19983;-73
2022/05/03 11:14:24;;;;;;;8.23;2.30;;;17.40;77.60;;;;;;5014436;28;20120;-73
2022/05/03 11:17:05;;;;;;;8.20;2.65;;;17.30;80.20;;;;;;5043286;28;20052;-72
2022/05/03 11:19:34;;;;;;;7.72;2.28;;;17.30;72.00;;;;;;5029891;28;20057;-72
2022/05/03 11:22:01;;;;;;;10.30;3.10;;;17.30;75.10;;;;;;5035175;28;20107;-76
2022/05/03 11:24:30;;;;;;;10.38;2.42;;;17.20;76.70;;;;;;5022665;28;20048;-73
2022/05/03 11:27:09;;;;;;;8.75;2.35;;;17.40;78.30;;;;;;5029394;28;20103;-72
2022/05/03 11:29:42;;;;;;;6.93;2.30;;;17.50;77.60;;;;;;5019691;28;20153;-69
2022/05/03 11:32:09;;;;;;;7.57;2.70;;;17.80;72.60;;;;;;5026032;28;20049;-76
2022/05/03 11:34:37;;;;;;;6.90;2.53;;;18.00;73.70;;;;;;5010566;28;20045;-72
2022/05/03 11:37:05;;;;;;;7.97;2.25;;;18.00;72.40;;;;;;5023852;28;20045;-72
2022/05/03 11:39:31;;;;;;;8.05;2.30;;;17.90;71.40;;;;;;5024235;28;20050;-72
2022/05/03 11:41:57;;;;;;;5.72;2.05;;;17.80;70.30;;;;;;5054655;28;20396;-72
2022/05/03 11:44:29;;;;;;;9.07;2.20;;;17.60;69.70;;;;;;5034042;28;20042;-72
2022/05/03 11:46:57;;;;;;;;;;;17.60;68.50;;;;;;5032817;28;20092;-72
2022/05/03 11:49:23;;;;;;;6.55;2.33;;;17.60;64.70;;;;;;5030761;28;19921;-73
2022/05/03 11:57:35;;;;;;;5.47;2.40;;;17.60;65.70;;;;;;5023084;28;20045;-75
2022/05/03 12:00:04;;;;;;;7.70;1.90;;;18.00;68.50;;;;;;5027214;28;20062;-74
2022/05/03 12:02:36;;;;;;;7.18;2.13;;;18.00;67.80;;;;;;5022091;28;20133;-74
2022/05/03 12:05:08;;;;;;;5.85;2.10;;;18.20;67.00;;;;;;5020332;28;20406;-74
2022/05/03 12:07:43;;;;;;;5.95;2.00;;;18.50;67.70;;;;;;5017699;28;20529;-77
2022/05/03 12:10:21;;;;;;;7.80;2.10;;;18.80;63.20;;;;;;5028715;28;20041;-75
2022/05/03 12:13:02;;;;;;;4.32;1.80;;;18.90;63.80;;;;;;5021389;28;20045;-77
2022/05/03 12:15:31;;;;;;;;;;;18.40;63.60;;;;;;5009922;28;20053;-77
2022/05/03 12:18:13;;;;;;;5.40;1.75;;;18.40;59.60;;;;;;5020053;28;19943;-76
2022/05/03 12:20:57;;;;;;;4.72;1.90;;;18.60;63.20;;;;;;5015683;28;20061;-73
2022/05/03 12:23:34;;;;;;;5.25;1.70;;;18.60;63.20;;;;;;5018173;28;20053;-72
2022/05/03 12:26:17;;;;;;;9.45;2.28;;;18.60;63.00;;;;;;5014959;28;20049;-73
2022/05/03 12:29:04;;;;;;;4.78;1.77;;;18.70;62.40;;;;;;5041956;28;20042;-75
2022/05/03 12:31:35;;;;;;;5.70;1.92;;;18.90;59.90;;;;;;5033203;28;20476;-68
2022/05/03 12:34:03;;;;;;;7.68;2.17;;;19.00;62.20;;;;;;5041855;28;20271;-70
2022/05/03 12:36:36;;;;;;;6.13;2.00;;;19.00;61.60;;;;;;5017753;28;20057;-71
2022/05/03 12:39:09;;;;;;;6.22;2.53;;;18.70;60.00;;;;;;5045401;28;20120;-69
2022/05/03 12:41:36;;;;;;;5.82;1.90;;;18.80;60.20;;;;;;5051439;28;20059;-70
2022/05/03 12:44:13;;;;;;;5.97;1.77;;;18.80;60.50;;;;;;5038276;28;20076;-71
2022/05/03 12:46:41;;;;;;;5.05;1.85;;;19.20;58.00;;;;;;5031890;28;20046;-71
2022/05/03 12:49:12;;;;;;;5.78;1.98;;;19.60;61.20;;;;;;5014085;28;20053;-71
2022/05/03 12:51:43;;;;;;;6.90;2.22;;;19.50;58.60;;;;;;5012373;28;20088;-69
2022/05/03 12:54:10;;;;;;;7.20;2.40;;;19.60;58.80;;;;;;5010735;28;21263;-69
2022/05/03 12:59:26;;;;;;;6.80;2.00;;;19.40;58.10;;;;;;5025855;28;20050;-70
2022/05/03 13:01:55;;;;;;;6.75;1.80;;;18.80;57.90;;;;;;5014979;28;20560;-69
2022/05/03 13:04:22;;;;;;;7.35;1.77;;;19.00;58.40;;;;;;5008864;28;20045;-69
2022/05/03 13:06:49;;;;;;;8.48;2.40;;;19.30;59.40;;;;;;5012885;28;20058;-70
2022/05/03 13:09:15;;;;;;;10.50;2.40;;;19.60;58.90;;;;;;5030964;28;20048;-71
2022/05/03 13:11:41;;;;;;;5.63;1.70;;;19.70;59.10;;;;;;5019264;28;20512;-69
2022/05/03 13:14:09;;;;;;;9.23;2.17;;;19.70;58.40;;;;;;5017857;28;20126;-69
2022/05/03 13:16:36;;;;;;;10.88;2.13;;;19.70;59.00;;;;;;5004671;28;20053;-68
2022/05/03 13:19:02;;;;;;;8.27;2.50;;;19.90;58.80;;;;;;5022415;28;20053;-68
2022/05/03 13:21:29;;;;;;;7.25;2.30;;;19.70;58.00;;;;;;5030902;28;20060;-70
2022/05/03 13:23:55;;;;;;;9.10;2.50;;;19.90;59.00;;;;;;5027353;28;20081;-69
2022/05/03 13:26:21;;;;;;;6.25;2.00;;;20.00;57.70;;;;;;4993230;28;20135;-68
2022/05/03 13:28:47;;;;;;;7.53;2.33;;;19.70;57.10;;;;;;4995424;28;20409;-69
2022/05/03 13:31:13;;;;;;;10.25;2.03;;;19.60;56.90;;;;;;5005529;28;20056;-69
2022/05/03 13:33:40;;;;;;;10.55;2.80;;;19.80;57.70;;;;;;5039213;28;20052;-69
2022/05/03 13:41:35;;;;;;;9.05;2.13;;;20.70;56.00;;;;;;5019915;28;20107;-70
2022/05/03 13:44:02;;;;;;;12.27;3.17;;;20.50;56.30;;;;;;4996626;28;20050;-72